createdAt,value
2022-08-09T00:06:17.782Z,8.80
2022-08-09T00:16:04.729Z,8.90
2022-08-09T00:28:22.789Z,11.80
2022-08-09T00:47:04.416Z,11.10
2022-08-09T00:51:25.700Z,10.40
2022-08-09T01:27:35.422Z,8.50
2022-08-09T01:51:03.909Z,7.60
2022-08-09T01:54:09.742Z,8.80
2022-08-09T02:19:46.441Z,12.80
2022-08-09T02:22:46.487Z,13.00
2022-08-09T02:30:17.464Z,15.40
2022-08-09T02:45:54.083Z,11.10
2022-08-09T02:48:48.302Z,10.60
2022-08-09T03:05:55.572Z,9.10
2022-08-09T03:18:10.712Z,8.40
2022-08-09T03:21:28.118Z,9.00
2022-08-09T03:24:52.382Z,8.70
2022-08-09T03:32:47.521Z,8.90
2022-08-09T03:36:27.293Z,9.60
2022-08-09T03:44:08.037Z,9.10
2022-08-09T04:09:15.821Z,9.50
2022-08-09T04:13:11.535Z,9.00
2022-08-09T04:33:53.176Z,10.20
2022-08-09T04:43:19.094Z,11.00
2022-08-09T04:46:59.486Z,10.70
2022-08-09T04:59:17.750Z,11.80
2022-08-09T05:02:48.619Z,11.90
2022-08-09T05:14:26.903Z,14.50
2022-08-09T05:18:55.272Z,15.50
2022-08-09T05:29:35.406Z,11.00
2022-08-09T05:36:57.117Z,9.40
2022-08-09T05:39:58.695Z,9.40
2022-08-09T05:42:30.076Z,9.40
2022-08-09T05:44:59.988Z,8.50
2022-08-09T05:47:33.213Z,9.70
2022-08-09T05:50:26.882Z,9.20
2022-08-09T05:52:53.741Z,8.30
2022-08-09T05:55:23.997Z,8.70
2022-08-09T05:57:57.456Z,8.10
2022-08-09T06:00:30.555Z,7.90
2022-08-09T06:03:03.842Z,7.90
2022-08-09T06:05:49.864Z,7.60
2022-08-09T06:08:26.625Z,6.30
2022-08-09T06:10:58.029Z,6.50
2022-08-09T06:13:33.579Z,9.50
2022-08-09T06:16:04.708Z,6.70
2022-08-09T06:18:34.818Z,6.60
2022-08-09T06:21:05.858Z,5.50
2022-08-09T06:23:59.022Z,5.90
2022-08-09T06:26:28.538Z,4.70
2022-08-09T06:28:59.287Z,5.20
2022-08-09T06:31:39.330Z,5.50
2022-08-09T06:34:09.596Z,5.30
2022-08-09T06:36:43.855Z,5.00
2022-08-09T06:39:14.690Z,4.80
2022-08-09T06:42:32.958Z,4.50
2022-08-09T06:45:09.230Z,5.60
2022-08-09T06:48:00.613Z,5.20
2022-08-09T06:50:31.218Z,4.40
2022-08-09T06:53:06.351Z,4.00
2022-08-09T06:58:04.749Z,3.20
2022-08-09T07:00:56.359Z,3.90
2022-08-09T07:03:28.543Z,3.10
2022-08-09T07:06:03.830Z,3.10
2022-08-09T07:08:37.107Z,3.10
2022-08-09T07:16:36.311Z,3.00
2022-08-09T07:18:43.942Z,2.70
2022-08-09T07:21:20.008Z,3.20
2022-08-09T07:23:58.293Z,2.90
2022-08-09T07:26:34.272Z,2.80
2022-08-09T07:29:12.081Z,3.00
2022-08-09T07:31:45.393Z,3.50
2022-08-09T07:34:20.584Z,2.90
2022-08-09T07:36:50.520Z,3.50
2022-08-09T07:39:41.163Z,3.20
2022-08-09T07:42:11.123Z,2.60
2022-08-09T07:44:51.221Z,2.50
2022-08-09T07:47:23.113Z,2.30
2022-08-09T07:50:08.361Z,1.90
2022-08-09T07:52:40.764Z,2.00
2022-08-09T07:55:12.098Z,3.40
2022-08-09T07:57:46.689Z,2.20
2022-08-09T08:00:20.187Z,1.80
2022-08-09T08:02:50.056Z,2.20
2022-08-09T08:05:20.845Z,1.90
2022-08-09T08:08:43.003Z,1.60
2022-08-09T08:13:23.592Z,1.90
2022-08-09T08:15:52.907Z,2.10
2022-08-09T08:18:22.357Z,1.70
2022-08-09T08:20:51.031Z,1.40
2022-08-09T08:23:20.305Z,1.60
2022-08-09T08:26:06.490Z,1.70
2022-08-09T08:28:37.382Z,1.60
2022-08-09T08:31:14.712Z,2.00
2022-08-09T08:33:52.923Z,1.40
2022-08-09T08:36:28.811Z,1.90
2022-08-09T08:39:00.519Z,1.60
2022-08-09T08:41:50.800Z,1.80
2022-08-09T08:44:27.269Z,2.00
2022-08-09T08:47:03.154Z,1.50
2022-08-09T08:49:48.290Z,1.20
2022-08-09T08:52:58.268Z,1.60
2022-08-09T08:55:11.023Z,1.70
2022-08-09T08:57:43.272Z,1.70
2022-08-09T09:00:30.103Z,1.40
2022-08-09T09:03:08.226Z,1.50
2022-08-09T09:06:01.173Z,2.00
2022-08-09T09:08:40.164Z,2.10
2022-08-09T09:11:13.844Z,1.70
2022-08-09T09:13:56.234Z,1.50
2022-08-09T09:16:30.458Z,1.60
2022-08-09T09:22:08.033Z,1.60
2022-08-09T09:24:43.946Z,1.50
2022-08-09T09:28:03.910Z,1.70
2022-08-09T09:30:28.847Z,1.70
2022-08-09T09:33:16.358Z,1.90
2022-08-09T09:40:46.262Z,1.80
2022-08-09T09:43:19.598Z,2.50
2022-08-09T09:46:46.080Z,1.60
2022-08-09T09:49:49.973Z,2.10
2022-08-09T09:52:33.356Z,1.80
2022-08-09T09:55:16.124Z,1.90
2022-08-09T09:58:03.664Z,1.50
2022-08-09T10:00:43.024Z,1.70
2022-08-09T10:03:38.127Z,1.50
2022-08-09T10:06:09.091Z,1.60
2022-08-09T10:08:54.245Z,2.00
2022-08-09T10:11:58.953Z,2.30
2022-08-09T10:14:27.323Z,1.90
2022-08-09T10:17:17.684Z,1.60
2022-08-09T10:19:52.057Z,1.90
2022-08-09T10:22:35.065Z,1.60
2022-08-09T10:25:11.827Z,2.20
2022-08-09T10:27:57.114Z,1.50
2022-08-09T10:33:29.670Z,1.50
2022-08-09T10:36:57.140Z,2.00
2022-08-09T10:41:57.881Z,1.50
2022-08-09T10:44:30.503Z,1.70
2022-08-09T10:48:12.304Z,1.40
2022-08-09T10:50:15.050Z,1.40
2022-08-09T10:53:03.818Z,1.50
2022-08-09T10:55:49.227Z,1.50
2022-08-09T10:58:34.765Z,1.80
2022-08-09T11:03:02.145Z,2.10
2022-08-09T11:04:27.908Z,1.60
2022-08-09T11:07:57.425Z,2.10
2022-08-09T11:11:00.832Z,1.70
2022-08-09T11:13:50.587Z,1.40
2022-08-09T11:22:21.684Z,1.30
2022-08-09T11:25:08.451Z,1.50
2022-08-09T11:28:05.583Z,1.50
2022-08-09T11:30:35.607Z,1.50
2022-08-09T11:33:10.772Z,1.40
2022-08-09T11:35:49.603Z,1.60
2022-08-09T11:38:32.484Z,1.80
2022-08-09T11:41:38.002Z,1.20
2022-08-09T11:44:09.534Z,2.70
2022-08-09T11:47:00.257Z,1.80
2022-08-09T11:50:52.464Z,2.00
2022-08-09T11:53:57.701Z,1.30
2022-08-09T11:56:42.852Z,1.20
2022-08-09T11:59:30.213Z,1.50
2022-08-09T12:02:34.529Z,1.40
2022-08-09T12:04:57.932Z,1.50
2022-08-09T12:07:41.503Z,1.20
2022-08-09T12:10:32.040Z,1.60
2022-08-09T12:13:03.855Z,2.00
2022-08-09T12:15:52.328Z,1.90
2022-08-09T12:18:30.080Z,1.50
2022-08-09T12:21:03.132Z,1.50
2022-08-09T12:23:58.697Z,1.20
2022-08-09T12:26:26.154Z,1.40
2022-08-09T12:29:14.071Z,1.90
2022-08-09T12:32:01.551Z,1.40
2022-08-09T12:34:36.763Z,1.10
2022-08-09T12:37:21.393Z,1.50
2022-08-09T12:40:05.665Z,1.70
2022-08-09T12:42:35.799Z,1.90
2022-08-09T12:45:32.155Z,1.60
2022-08-09T12:47:57.329Z,1.30
2022-08-09T12:50:26.768Z,1.60
2022-08-09T12:57:36.166Z,1.70
2022-08-09T13:00:28.764Z,1.60
2022-08-09T13:07:10.872Z,1.70
2022-08-09T13:09:40.828Z,1.70
2022-08-09T13:12:10.081Z,1.70
2022-08-09T13:14:44.356Z,1.80
2022-08-09T13:17:43.894Z,1.70
2022-08-09T13:20:18.879Z,2.10
2022-08-09T13:23:01.846Z,1.60
2022-08-09T13:25:53.069Z,1.90
2022-08-09T13:28:35.976Z,1.90
2022-08-09T13:32:13.252Z,1.80
2022-08-09T13:34:01.857Z,1.80
2022-08-09T13:36:42.632Z,1.80
2022-08-09T13:41:20.855Z,1.60
2022-08-09T13:42:04.444Z,1.70
2022-08-09T13:44:33.887Z,1.40
2022-08-09T13:47:53.745Z,1.50
2022-08-09T13:50:31.077Z,1.60
2022-08-09T13:53:00.565Z,1.70
2022-08-09T13:55:30.510Z,1.70
2022-08-09T13:57:59.575Z,1.70
2022-08-09T14:00:29.736Z,1.40
2022-08-09T14:03:03.731Z,1.80
2022-08-09T14:05:59.584Z,1.70
2022-08-09T14:08:33.150Z,1.80
2022-08-09T14:11:04.014Z,2.10
2022-08-09T14:14:22.320Z,1.70
2022-08-09T14:16:34.571Z,2.00
2022-08-09T14:19:03.580Z,2.20
2022-08-09T14:21:32.509Z,5.40
2022-08-09T14:24:10.479Z,2.90
2022-08-09T14:26:51.821Z,2.10
2022-08-09T14:29:25.654Z,1.90
2022-08-09T14:32:11.195Z,2.30
2022-08-09T14:34:45.099Z,2.10
2022-08-09T14:37:14.215Z,1.90
2022-08-09T14:39:48.579Z,2.10
2022-08-09T14:42:32.120Z,2.10
2022-08-09T14:46:38.859Z,2.00
2022-08-09T14:47:57.166Z,1.70
2022-08-09T14:50:31.098Z,1.80
2022-08-09T14:53:01.225Z,2.20
2022-08-09T14:58:04.636Z,1.90
2022-08-09T15:00:36.335Z,2.00
2022-08-09T15:03:07.392Z,2.10
2022-08-09T15:05:38.551Z,2.20
2022-08-09T15:08:10.283Z,2.10
2022-08-09T15:10:39.994Z,2.10
2022-08-09T15:13:12.743Z,1.90
2022-08-09T15:15:43.702Z,1.80
2022-08-09T15:21:54.616Z,2.00
2022-08-09T15:24:06.098Z,2.00
2022-08-09T15:26:30.831Z,2.40
2022-08-09T15:29:04.253Z,2.00
2022-08-09T15:31:41.559Z,2.00
2022-08-09T15:34:32.503Z,2.00
2022-08-09T15:37:04.335Z,1.80
2022-08-09T15:39:43.857Z,2.30
2022-08-09T15:42:22.259Z,1.90
2022-08-09T15:44:51.548Z,2.00
2022-08-09T15:47:21.646Z,1.90
2022-08-09T15:50:00.750Z,1.80
2022-08-09T15:52:34.622Z,2.30
2022-08-09T15:57:36.013Z,1.90
2022-08-09T16:00:24.193Z,2.40
2022-08-09T16:02:56.792Z,2.10
2022-08-09T16:05:47.226Z,2.10
2022-08-09T16:08:30.543Z,3.00
2022-08-09T16:11:02.100Z,2.40
2022-08-09T16:14:02.581Z,2.20
2022-08-09T16:16:28.133Z,2.40
2022-08-09T16:18:57.340Z,2.30
2022-08-09T16:21:26.510Z,2.20
2022-08-09T16:24:02.221Z,2.20
2022-08-09T16:26:34.760Z,2.10
2022-08-09T16:29:11.244Z,2.50
2022-08-09T16:32:19.086Z,2.80
2022-08-09T16:34:44.829Z,2.00
2022-08-09T16:37:55.229Z,2.20
2022-08-09T16:40:13.706Z,2.70
2022-08-09T16:42:44.807Z,1.90
2022-08-09T16:45:19.314Z,2.00
2022-08-09T16:48:38.090Z,2.10
2022-08-09T16:50:39.345Z,2.00
2022-08-09T16:53:09.016Z,2.30
2022-08-09T16:55:59.068Z,2.10
2022-08-09T16:58:27.124Z,2.50
2022-08-09T17:00:56.482Z,2.20
2022-08-09T17:03:28.182Z,2.30
2022-08-09T17:06:07.160Z,3.50
2022-08-09T17:09:01.396Z,4.40
2022-08-09T17:11:41.923Z,3.60
2022-08-09T17:14:25.995Z,2.90
2022-08-09T17:17:01.494Z,2.90
2022-08-09T17:19:47.211Z,2.60
2022-08-09T17:22:29.069Z,2.70
2022-08-09T17:25:05.100Z,2.50
2022-08-09T17:27:49.070Z,2.90
2022-08-09T17:30:19.728Z,2.40
2022-08-09T17:32:52.926Z,2.50
2022-08-09T17:35:22.365Z,2.60
2022-08-09T17:38:11.495Z,2.40
2022-08-09T17:40:47.334Z,2.70
2022-08-09T17:43:34.102Z,2.90
2022-08-09T17:46:09.161Z,2.40
2022-08-09T17:48:51.833Z,2.70
2022-08-09T17:51:22.110Z,2.90
2022-08-09T17:53:54.797Z,3.00
2022-08-09T17:56:27.251Z,3.10
2022-08-09T17:58:59.486Z,3.10
2022-08-09T18:02:03.220Z,3.50
2022-08-09T18:04:21.580Z,3.40
2022-08-09T18:06:55.268Z,3.80
2022-08-09T18:09:40.036Z,4.20
2022-08-09T18:12:19.452Z,4.80
2022-08-09T18:14:54.875Z,4.50
2022-08-09T18:17:27.517Z,4.80
2022-08-09T18:20:54.577Z,5.20
2022-08-09T18:23:07.118Z,6.50
2022-08-09T18:25:52.944Z,7.70
2022-08-09T18:30:42.606Z,9.00
2022-08-09T18:31:24.980Z,7.20
2022-08-09T18:34:08.660Z,6.70
2022-08-09T18:36:38.215Z,7.60
2022-08-09T18:39:07.438Z,6.50
2022-08-09T18:41:52.512Z,5.50
2022-08-09T18:44:25.767Z,5.30
2022-08-09T18:47:05.139Z,5.80
2022-08-09T18:49:46.726Z,6.30
2022-08-09T18:52:24.711Z,5.70
2022-08-09T18:54:54.460Z,5.90
2022-08-09T18:57:43.001Z,5.60
2022-08-09T19:00:20.302Z,5.90
2022-08-09T19:02:54.083Z,6.70
2022-08-09T19:05:41.538Z,6.00
2022-08-09T19:10:54.127Z,6.30
2022-08-09T19:13:38.579Z,5.60
2022-08-09T19:16:20.849Z,4.80
2022-08-09T19:18:52.244Z,5.90
2022-08-09T19:21:21.709Z,6.10
2022-08-09T19:24:37.355Z,6.20
2022-08-09T19:27:11.531Z,5.80
2022-08-09T19:30:21.394Z,6.00
2022-08-09T19:32:37.437Z,5.80
2022-08-09T19:35:09.247Z,5.30
2022-08-09T19:37:54.592Z,5.70
2022-08-09T19:40:34.048Z,5.90
2022-08-09T19:43:10.199Z,6.50
2022-08-09T19:45:45.391Z,6.40
2022-08-09T19:48:16.629Z,6.70
2022-08-09T19:51:07.919Z,6.10
2022-08-09T19:53:37.225Z,6.00
2022-08-09T19:56:15.445Z,6.40
2022-08-09T19:58:56.382Z,6.40
2022-08-09T20:01:52.196Z,6.90
2022-08-09T20:04:36.662Z,6.50
2022-08-09T20:07:12.204Z,7.40
2022-08-09T20:09:50.029Z,6.90
2022-08-09T20:12:30.297Z,6.40
2022-08-09T20:16:31.664Z,6.80
2022-08-09T20:18:02.272Z,6.60
2022-08-09T20:20:35.357Z,6.90
2022-08-09T20:23:07.896Z,6.90
2022-08-09T20:25:52.584Z,6.80
2022-08-09T20:28:34.179Z,6.60
2022-08-09T20:31:04.905Z,8.00
2022-08-09T20:36:14.168Z,7.00
2022-08-09T20:39:28.283Z,7.20
2022-08-09T20:41:35.720Z,7.70
2022-08-09T20:44:10.408Z,6.60
2022-08-09T20:46:44.690Z,7.20
2022-08-09T20:49:15.988Z,7.40
2022-08-09T20:51:50.553Z,7.30
2022-08-09T20:54:21.346Z,6.90
2022-08-09T20:56:54.130Z,6.80
2022-08-09T20:59:49.939Z,6.90
2022-08-09T21:02:17.723Z,6.80
2022-08-09T21:05:52.521Z,6.60
2022-08-09T21:07:40.251Z,7.60
2022-08-09T21:10:13.127Z,6.40
2022-08-09T21:15:33.995Z,7.00
2022-08-09T21:18:23.475Z,7.00
2022-08-09T21:20:54.840Z,7.00
2022-08-09T21:23:36.096Z,6.70
2022-08-09T21:26:15.683Z,6.70
2022-08-09T21:28:56.082Z,7.20
2022-08-09T21:31:48.592Z,7.40
2022-08-09T21:34:21.026Z,6.70
2022-08-09T21:36:57.958Z,7.10
2022-08-09T21:39:28.383Z,7.00
2022-08-09T21:42:11.902Z,7.10
2022-08-09T21:44:41.102Z,6.60
2022-08-09T21:47:17.500Z,7.20
2022-08-09T21:49:51.153Z,6.90
2022-08-09T21:52:21.045Z,6.50
2022-08-09T21:54:57.112Z,6.90
2022-08-09T21:57:38.250Z,6.90
2022-08-09T22:00:31.830Z,6.50
2022-08-09T22:03:04.756Z,6.50
2022-08-09T22:05:36.727Z,6.70
2022-08-09T22:08:14.776Z,6.40
2022-08-09T22:11:00.992Z,5.90
2022-08-09T22:13:36.721Z,6.70
2022-08-09T22:16:08.625Z,6.90
2022-08-09T22:18:53.022Z,6.30
2022-08-09T22:21:27.656Z,7.80
2022-08-09T22:24:17.075Z,7.00
2022-08-09T22:26:51.208Z,7.80
2022-08-09T22:29:28.429Z,7.60
2022-08-09T22:34:30.302Z,8.20
2022-08-09T22:36:59.789Z,10.90
2022-08-09T22:39:55.707Z,10.50
2022-08-09T22:42:20.965Z,14.10
2022-08-09T22:48:04.885Z,16.40
2022-08-09T22:50:31.576Z,19.30
2022-08-09T22:53:03.779Z,18.60
2022-08-09T22:56:06.411Z,18.20
2022-08-09T22:58:32.381Z,19.40
2022-08-09T23:01:05.628Z,18.90
2022-08-09T23:04:03.907Z,21.90
2022-08-09T23:06:35.142Z,19.00
2022-08-09T23:09:07.923Z,17.90
2022-08-09T23:11:36.790Z,16.90
2022-08-09T23:14:17.255Z,16.00
2022-08-09T23:16:46.456Z,16.00
2022-08-09T23:19:15.298Z,14.00
2022-08-09T23:21:43.992Z,12.60
2022-08-09T23:24:13.418Z,12.80
2022-08-09T23:26:42.228Z,11.50
2022-08-09T23:29:13.047Z,10.20
2022-08-09T23:31:42.811Z,10.30
2022-08-09T23:34:11.928Z,11.20
2022-08-09T23:36:40.867Z,10.30
2022-08-09T23:39:09.644Z,11.20
2022-08-09T23:41:38.692Z,11.30
2022-08-09T23:44:07.545Z,11.80
2022-08-09T23:46:36.369Z,11.90
2022-08-09T23:49:05.116Z,11.30
2022-08-09T23:51:35.271Z,10.90
2022-08-09T23:54:04.332Z,11.60
2022-08-09T23:56:52.243Z,11.30
2022-08-09T23:59:25.104Z,11.00
